Milton, Iowa
Current Conditions -  °F | °C
As of 10:55 PM on Friday 31 Oct 2014 (Local Time) from KFFL Reporting Station
Clear Clear  
Wind Chill: 21°   Ceiling: Unl
Heat Index: 28°   Visibility: NA
Dew Point: 19°   Wind: 7mph
Humidity: 69%   Direction: 340°NNW
Pressure: 30.46"   Gusts: NA
Location:  40.67°N, 92.16°W
Report Text: KFFL 010355Z AUTO 34006KT CLR M02/M07 A3046 RMK AO2
Loading
Personal Weather Stations






























Interactive Weather Map
Tropical Storm Tracking
New forecast layout! Learn more

10-Day Weather Forecast

Advertisements
Track Severe Weather on mobile